sensor_id;sensor_type;location;lat;lon;timestamp;P1;durP1;ratioP1;P2;durP2;ratioP2
50605;SDS011;36557;53.572;10.170;2023-08-01T00:00:47;1.98;;;1.10;;
50605;SDS011;36557;53.572;10.170;2023-08-01T00:03:13;1.52;;;0.90;;
50605;SDS011;36557;53.572;10.170;2023-08-01T00:05:39;1.92;;;1.10;;
50605;SDS011;36557;53.572;10.170;2023-08-01T00:08:12;1.42;;;0.90;;
50605;SDS011;36557;53.572;10.170;2023-08-01T00:10:38;1.65;;;1.05;;
50605;SDS011;36557;53.572;10.170;2023-08-01T00:13:04;2.97;;;1.20;;
50605;SDS011;36557;53.572;10.170;2023-08-01T00:15:30;2.03;;;1.05;;
50605;SDS011;36557;53.572;10.170;2023-08-01T00:17:55;1.77;;;1.13;;
50605;SDS011;36557;53.572;10.170;2023-08-01T00:20:21;1.10;;;1.00;;
50605;SDS011;36557;53.572;10.170;2023-08-01T00:22:47;2.08;;;1.17;;
50605;SDS011;36557;53.572;10.170;2023-08-01T00:25:13;3.05;;;1.30;;
50605;SDS011;36557;53.572;10.170;2023-08-01T00:27:39;1.60;;;1.20;;
50605;SDS011;36557;53.572;10.170;2023-08-01T00:30:04;1.50;;;0.98;;
50605;SDS011;36557;53.572;10.170;2023-08-01T00:32:31;1.30;;;0.85;;
50605;SDS011;36557;53.572;10.170;2023-08-01T00:34:56;1.25;;;0.93;;
50605;SDS011;36557;53.572;10.170;2023-08-01T00:37:22;1.33;;;0.75;;
50605;SDS011;36557;53.572;10.170;2023-08-01T00:39:48;1.02;;;0.90;;
50605;SDS011;36557;53.572;10.170;2023-08-01T00:42:13;2.13;;;0.90;;
50605;SDS011;36557;53.572;10.170;2023-08-01T00:44:40;2.10;;;1.17;;
50605;SDS011;36557;53.572;10.170;2023-08-01T00:47:06;0.95;;;0.70;;
50605;SDS011;36557;53.572;10.170;2023-08-01T00:49:32;3.55;;;0.98;;
50605;SDS011;36557;53.572;10.170;2023-08-01T00:51:58;1.08;;;0.80;;
50605;SDS011;36557;53.572;10.170;2023-08-01T00:54:24;1.83;;;1.10;;
50605;SDS011;36557;53.572;10.170;2023-08-01T00:56:50;1.83;;;1.00;;
50605;SDS011;36557;53.572;10.170;2023-08-01T00:59:16;2.70;;;1.10;;
50605;SDS011;36557;53.572;10.170;2023-08-01T01:01:42;1.27;;;0.90;;
50605;SDS011;36557;53.572;10.170;2023-08-01T01:04:08;5.88;;;0.90;;
50605;SDS011;36557;53.572;10.170;2023-08-01T01:09:31;1.65;;;0.90;;
50605;SDS011;36557;53.572;10.170;2023-08-01T01:11:57;2.38;;;1.10;;
50605;SDS011;36557;53.572;10.170;2023-08-01T01:14:24;2.00;;;1.00;;
50605;SDS011;36557;53.572;10.170;2023-08-01T01:16:53;1.40;;;0.95;;
50605;SDS011;36557;53.572;10.170;2023-08-01T01:19:19;1.45;;;1.00;;
50605;SDS011;36557;53.572;10.170;2023-08-01T01:21:45;4.15;;;1.10;;
50605;SDS011;36557;53.572;10.170;2023-08-01T01:24:12;1.40;;;1.00;;
50605;SDS011;36557;53.572;10.170;2023-08-01T01:26:40;2.35;;;1.10;;
50605;SDS011;36557;53.572;10.170;2023-08-01T01:29:06;2.92;;;1.05;;
50605;SDS011;36557;53.572;10.170;2023-08-01T01:31:36;1.38;;;1.10;;
50605;SDS011;36557;53.572;10.170;2023-08-01T01:34:02;1.50;;;1.02;;
50605;SDS011;36557;53.572;10.170;2023-08-01T01:36:28;1.60;;;1.10;;
50605;SDS011;36557;53.572;10.170;2023-08-01T01:38:54;2.78;;;0.90;;
50605;SDS011;36557;53.572;10.170;2023-08-01T01:41:20;2.38;;;1.15;;
50605;SDS011;36557;53.572;10.170;2023-08-01T01:43:47;2.42;;;1.20;;
50605;SDS011;36557;53.572;10.170;2023-08-01T01:46:13;1.75;;;1.10;;
50605;SDS011;36557;53.572;10.170;2023-08-01T01:48:38;1.83;;;1.30;;
50605;SDS011;36557;53.572;10.170;2023-08-01T01:51:04;3.85;;;1.63;;
50605;SDS011;36557;53.572;10.170;2023-08-01T01:53:30;2.00;;;1.30;;
50605;SDS011;36557;53.572;10.170;2023-08-01T01:55:55;1.92;;;1.20;;
50605;SDS011;36557;53.572;10.170;2023-08-01T01:58:21;2.00;;;1.23;;
50605;SDS011;36557;53.572;10.170;2023-08-01T02:00:48;2.58;;;1.25;;
50605;SDS011;36557;53.572;10.170;2023-08-01T02:03:14;1.30;;;1.08;;
50605;SDS011;36557;53.572;10.170;2023-08-01T02:05:40;2.25;;;1.42;;
50605;SDS011;36557;53.572;10.170;2023-08-01T02:08:06;1.70;;;1.10;;
50605;SDS011;36557;53.572;10.170;2023-08-01T02:10:32;3.05;;;1.33;;
50605;SDS011;36557;53.572;10.170;2023-08-01T02:12:58;3.10;;;1.23;;
50605;SDS011;36557;53.572;10.170;2023-08-01T02:15:24;3.17;;;1.38;;
50605;SDS011;36557;53.572;10.170;2023-08-01T02:17:50;1.95;;;1.30;;
50605;SDS011;36557;53.572;10.170;2023-08-01T02:20:15;2.72;;;1.40;;
50605;SDS011;36557;53.572;10.170;2023-08-01T02:22:41;3.55;;;1.73;;
50605;SDS011;36557;53.572;10.170;2023-08-01T02:25:07;2.85;;;1.30;;
50605;SDS011;36557;53.572;10.170;2023-08-01T02:27:33;1.88;;;1.40;;
50605;SDS011;36557;53.572;10.170;2023-08-01T02:29:59;1.95;;;1.58;;
50605;SDS011;36557;53.572;10.170;2023-08-01T02:32:24;1.88;;;1.20;;
50605;SDS011;36557;53.572;10.170;2023-08-01T02:34:50;4.25;;;1.48;;
50605;SDS011;36557;53.572;10.170;2023-08-01T02:37:16;3.22;;;1.30;;
50605;SDS011;36557;53.572;10.170;2023-08-01T02:39:41;2.33;;;1.50;;
50605;SDS011;36557;53.572;10.170;2023-08-01T02:42:07;2.00;;;1.60;;
50605;SDS011;36557;53.572;10.170;2023-08-01T02:44:33;3.22;;;1.80;;
50605;SDS011;36557;53.572;10.170;2023-08-01T02:46:59;2.85;;;1.75;;
50605;SDS011;36557;53.572;10.170;2023-08-01T02:49:24;1.95;;;1.60;;
50605;SDS011;36557;53.572;10.170;2023-08-01T02:51:50;2.80;;;1.90;;
50605;SDS011;36557;53.572;10.170;2023-08-01T02:54:16;2.88;;;1.90;;
50605;SDS011;36557;53.572;10.170;2023-08-01T02:56:41;2.75;;;1.90;;
50605;SDS011;36557;53.572;10.170;2023-08-01T02:59:07;2.65;;;1.83;;
50605;SDS011;36557;53.572;10.170;2023-08-01T03:01:37;2.50;;;1.80;;
50605;SDS011;36557;53.572;10.170;2023-08-01T03:04:04;4.00;;;1.92;;
50605;SDS011;36557;53.572;10.170;2023-08-01T03:06:31;2.15;;;1.63;;
50605;SDS011;36557;53.572;10.170;2023-08-01T03:08:57;2.55;;;2.10;;
50605;SDS011;36557;53.572;10.170;2023-08-01T03:11:24;4.22;;;2.20;;
50605;SDS011;36557;53.572;10.170;2023-08-01T03:13:50;3.40;;;2.00;;
50605;SDS011;36557;53.572;10.170;2023-08-01T03:16:16;3.83;;;2.03;;
50605;SDS011;36557;53.572;10.170;2023-08-01T03:18:42;3.10;;;2.10;;
50605;SDS011;36557;53.572;10.170;2023-08-01T03:21:08;2.78;;;2.15;;
50605;SDS011;36557;53.572;10.170;2023-08-01T03:23:34;4.75;;;2.40;;
50605;SDS011;36557;53.572;10.170;2023-08-01T03:26:00;4.40;;;2.50;;
50605;SDS011;36557;53.572;10.170;2023-08-01T03:28:26;4.03;;;2.25;;
50605;SDS011;36557;53.572;10.170;2023-08-01T03:30:52;2.92;;;2.20;;
50605;SDS011;36557;53.572;10.170;2023-08-01T03:33:19;3.45;;;2.13;;
50605;SDS011;36557;53.572;10.170;2023-08-01T03:35:45;3.75;;;2.40;;
50605;SDS011;36557;53.572;10.170;2023-08-01T03:38:11;5.18;;;2.60;;
50605;SDS011;36557;53.572;10.170;2023-08-01T03:40:36;3.28;;;2.10;;
50605;SDS011;36557;53.572;10.170;2023-08-01T03:43:02;3.13;;;2.47;;
50605;SDS011;36557;53.572;10.170;2023-08-01T03:45:28;3.88;;;2.70;;
50605;SDS011;36557;53.572;10.170;2023-08-01T03:47:53;5.57;;;2.65;;
50605;SDS011;36557;53.572;10.170;2023-08-01T03:50:19;3.35;;;2.65;;
50605;SDS011;36557;53.572;10.170;2023-08-01T03:52:45;3.35;;;2.53;;
50605;SDS011;36557;53.572;10.170;2023-08-01T03:55:11;3.45;;;3.13;;
50605;SDS011;36557;53.572;10.170;2023-08-01T03:57:37;4.38;;;3.15;;
50605;SDS011;36557;53.572;10.170;2023-08-01T04:00:04;4.70;;;3.00;;
50605;SDS011;36557;53.572;10.170;2023-08-01T04:02:41;7.90;;;3.05;;
50605;SDS011;36557;53.572;10.170;2023-08-01T04:05:07;4.15;;;2.72;;
50605;SDS011;36557;53.572;10.170;2023-08-01T04:07:34;3.75;;;3.10;;
50605;SDS011;36557;53.572;10.170;2023-08-01T04:10:02;4.25;;;2.75;;
50605;SDS011;36557;53.572;10.170;2023-08-01T04:12:32;3.50;;;2.85;;
50605;SDS011;36557;53.572;10.170;2023-08-01T04:14:59;5.63;;;3.10;;
50605;SDS011;36557;53.572;10.170;2023-08-01T04:17:25;4.18;;;3.30;;
50605;SDS011;36557;53.572;10.170;2023-08-01T04:19:51;3.67;;;2.88;;
50605;SDS011;36557;53.572;10.170;2023-08-01T04:22:17;4.72;;;3.00;;
50605;SDS011;36557;53.572;10.170;2023-08-01T04:24:43;5.05;;;3.65;;
50605;SDS011;36557;53.572;10.170;2023-08-01T04:27:09;3.78;;;2.70;;
50605;SDS011;36557;53.572;10.170;2023-08-01T04:29:35;5.10;;;3.00;;
50605;SDS011;36557;53.572;10.170;2023-08-01T04:32:00;4.70;;;3.05;;
50605;SDS011;36557;53.572;10.170;2023-08-01T04:34:26;3.85;;;2.67;;
50605;SDS011;36557;53.572;10.170;2023-08-01T04:36:52;4.25;;;2.90;;
50605;SDS011;36557;53.572;10.170;2023-08-01T04:39:17;4.65;;;3.00;;
50605;SDS011;36557;53.572;10.170;2023-08-01T04:41:43;5.80;;;2.95;;
50605;SDS011;36557;53.572;10.170;2023-08-01T04:44:09;4.20;;;3.03;;
50605;SDS011;36557;53.572;10.170;2023-08-01T04:46:35;3.50;;;3.10;;
50605;SDS011;36557;53.572;10.170;2023-08-01T04:49:00;4.97;;;3.00;;
50605;SDS011;36557;53.572;10.170;2023-08-01T04:51:26;3.70;;;2.50;;
50605;SDS011;36557;53.572;10.170;2023-08-01T04:53:52;4.82;;;2.80;;
50605;SDS011;36557;53.572;10.170;2023-08-01T04:56:17;4.88;;;3.10;;
50605;SDS011;36557;53.572;10.170;2023-08-01T04:58:43;6.20;;;3.10;;
50605;SDS011;36557;53.572;10.170;2023-08-01T05:01:09;4.97;;;3.40;;
50605;SDS011;36557;53.572;10.170;2023-08-01T05:03:34;7.95;;;3.47;;
50605;SDS011;36557;53.572;10.170;2023-08-01T05:06:00;7.05;;;3.38;;
50605;SDS011;36557;53.572;10.170;2023-08-01T05:08:25;5.15;;;3.53;;
50605;SDS011;36557;53.572;10.170;2023-08-01T05:10:51;3.80;;;3.28;;
50605;SDS011;36557;53.572;10.170;2023-08-01T05:13:17;4.50;;;3.00;;
50605;SDS011;36557;53.572;10.170;2023-08-01T05:15:44;5.25;;;3.30;;
50605;SDS011;36557;53.572;10.170;2023-08-01T05:18:12;6.03;;;3.60;;
50605;SDS011;36557;53.572;10.170;2023-08-01T05:20:38;4.30;;;2.97;;
50605;SDS011;36557;53.572;10.170;2023-08-01T05:23:04;4.40;;;3.03;;
50605;SDS011;36557;53.572;10.170;2023-08-01T05:25:30;6.20;;;3.33;;
50605;SDS011;36557;53.572;10.170;2023-08-01T05:27:55;4.00;;;2.90;;
50605;SDS011;36557;53.572;10.170;2023-08-01T05:30:21;4.78;;;2.83;;
50605;SDS011;36557;53.572;10.170;2023-08-01T05:32:47;4.80;;;3.20;;
50605;SDS011;36557;53.572;10.170;2023-08-01T05:35:13;5.00;;;3.35;;
50605;SDS011;36557;53.572;10.170;2023-08-01T05:37:38;3.78;;;2.85;;
50605;SDS011;36557;53.572;10.170;2023-08-01T05:40:04;5.05;;;3.17;;
50605;SDS011;36557;53.572;10.170;2023-08-01T05:42:30;5.47;;;3.20;;
50605;SDS011;36557;53.572;10.170;2023-08-01T05:44:56;4.03;;;3.08;;
50605;SDS011;36557;53.572;10.170;2023-08-01T05:47:22;5.72;;;3.00;;
50605;SDS011;36557;53.572;10.170;2023-08-01T05:49:48;3.97;;;3.00;;
50605;SDS011;36557;53.572;10.170;2023-08-01T05:52:14;5.15;;;2.97;;
50605;SDS011;36557;53.572;10.170;2023-08-01T05:54:39;5.05;;;2.95;;
50605;SDS011;36557;53.572;10.170;2023-08-01T05:57:05;4.03;;;2.92;;
50605;SDS011;36557;53.572;10.170;2023-08-01T05:59:31;3.97;;;3.00;;
50605;SDS011;36557;53.572;10.170;2023-08-01T06:01:57;6.22;;;3.10;;
50605;SDS011;36557;53.572;10.170;2023-08-01T06:04:24;5.10;;;2.88;;
50605;SDS011;36557;53.572;10.170;2023-08-01T06:06:49;4.25;;;2.55;;
50605;SDS011;36557;53.572;10.170;2023-08-01T06:09:15;3.97;;;2.80;;
50605;SDS011;36557;53.572;10.170;2023-08-01T06:11:41;6.78;;;2.75;;
50605;SDS011;36557;53.572;10.170;2023-08-01T06:14:07;5.18;;;2.55;;
50605;SDS011;36557;53.572;10.170;2023-08-01T06:16:32;7.05;;;2.95;;
50605;SDS011;36557;53.572;10.170;2023-08-01T06:18:58;6.70;;;2.70;;
50605;SDS011;36557;53.572;10.170;2023-08-01T06:21:24;4.63;;;2.80;;
50605;SDS011;36557;53.572;10.170;2023-08-01T06:23:50;5.45;;;2.38;;
50605;SDS011;36557;53.572;10.170;2023-08-01T06:26:16;4.78;;;2.97;;
50605;SDS011;36557;53.572;10.170;2023-08-01T06:28:42;3.97;;;2.35;;
50605;SDS011;36557;53.572;10.170;2023-08-01T06:31:07;3.97;;;2.63;;
50605;SDS011;36557;53.572;10.170;2023-08-01T06:33:33;3.67;;;2.30;;
50605;SDS011;36557;53.572;10.170;2023-08-01T06:35:59;5.85;;;2.50;;
50605;SDS011;36557;53.572;10.170;2023-08-01T06:38:24;3.83;;;2.20;;
50605;SDS011;36557;53.572;10.170;2023-08-01T06:40:50;7.10;;;2.78;;
50605;SDS011;36557;53.572;10.170;2023-08-01T06:43:16;4.10;;;2.38;;
50605;SDS011;36557;53.572;10.170;2023-08-01T06:45:41;8.00;;;2.83;;
50605;SDS011;36557;53.572;10.170;2023-08-01T06:48:07;5.32;;;2.50;;
50605;SDS011;36557;53.572;10.170;2023-08-01T06:50:33;3.05;;;2.22;;
50605;SDS011;36557;53.572;10.170;2023-08-01T06:52:59;5.07;;;2.67;;
50605;SDS011;36557;53.572;10.170;2023-08-01T06:55:26;5.93;;;2.53;;
50605;SDS011;36557;53.572;10.170;2023-08-01T06:57:52;3.88;;;2.20;;
50605;SDS011;36557;53.572;10.170;2023-08-01T07:00:18;4.05;;;2.00;;
50605;SDS011;36557;53.572;10.170;2023-08-01T07:02:43;5.63;;;1.98;;
50605;SDS011;36557;53.572;10.170;2023-08-01T07:05:09;4.30;;;2.45;;
50605;SDS011;36557;53.572;10.170;2023-08-01T07:07:35;4.35;;;2.13;;
50605;SDS011;36557;53.572;10.170;2023-08-01T07:10:01;3.58;;;2.05;;
50605;SDS011;36557;53.572;10.170;2023-08-01T07:12:26;4.10;;;2.10;;
50605;SDS011;36557;53.572;10.170;2023-08-01T07:14:52;6.00;;;2.38;;
50605;SDS011;36557;53.572;10.170;2023-08-01T07:17:18;5.00;;;1.98;;
50605;SDS011;36557;53.572;10.170;2023-08-01T07:19:43;5.90;;;2.90;;
50605;SDS011;36557;53.572;10.170;2023-08-01T07:22:09;5.18;;;1.95;;
50605;SDS011;36557;53.572;10.170;2023-08-01T07:24:35;4.13;;;1.77;;
50605;SDS011;36557;53.572;10.170;2023-08-01T07:27:00;4.93;;;1.60;;
50605;SDS011;36557;53.572;10.170;2023-08-01T07:29:26;4.38;;;1.75;;
50605;SDS011;36557;53.572;10.170;2023-08-01T07:31:52;5.00;;;1.60;;
50605;SDS011;36557;53.572;10.170;2023-08-01T07:34:17;3.30;;;1.65;;
50605;SDS011;36557;53.572;10.170;2023-08-01T07:36:45;3.15;;;1.88;;
50605;SDS011;36557;53.572;10.170;2023-08-01T07:39:13;3.63;;;1.48;;
50605;SDS011;36557;53.572;10.170;2023-08-01T07:41:39;3.05;;;1.55;;
50605;SDS011;36557;53.572;10.170;2023-08-01T07:44:05;3.50;;;1.48;;
50605;SDS011;36557;53.572;10.170;2023-08-01T07:46:31;4.45;;;1.77;;
50605;SDS011;36557;53.572;10.170;2023-08-01T07:48:57;3.53;;;1.58;;
50605;SDS011;36557;53.572;10.170;2023-08-01T07:51:24;3.88;;;1.65;;
50605;SDS011;36557;53.572;10.170;2023-08-01T07:53:50;5.75;;;2.08;;
50605;SDS011;36557;53.572;10.170;2023-08-01T07:56:17;3.25;;;1.95;;
50605;SDS011;36557;53.572;10.170;2023-08-01T07:58:43;6.70;;;2.00;;
50605;SDS011;36557;53.572;10.170;2023-08-01T08:01:09;4.45;;;1.70;;
50605;SDS011;36557;53.572;10.170;2023-08-01T08:03:35;5.18;;;1.90;;
50605;SDS011;36557;53.572;10.170;2023-08-01T08:06:00;6.10;;;1.63;;
50605;SDS011;36557;53.572;10.170;2023-08-01T08:08:28;2.88;;;1.60;;
50605;SDS011;36557;53.572;10.170;2023-08-01T08:10:53;4.20;;;2.05;;
50605;SDS011;36557;53.572;10.170;2023-08-01T08:13:20;6.07;;;2.80;;
50605;SDS011;36557;53.572;10.170;2023-08-01T08:15:45;8.20;;;2.05;;
50605;SDS011;36557;53.572;10.170;2023-08-01T08:18:11;4.43;;;2.00;;
50605;SDS011;36557;53.572;10.170;2023-08-01T08:20:42;4.47;;;2.00;;
50605;SDS011;36557;53.572;10.170;2023-08-01T08:23:09;4.28;;;1.80;;
50605;SDS011;36557;53.572;10.170;2023-08-01T08:25:35;4.43;;;1.95;;
50605;SDS011;36557;53.572;10.170;2023-08-01T08:28:01;7.45;;;2.42;;
50605;SDS011;36557;53.572;10.170;2023-08-01T08:30:27;3.83;;;1.58;;
50605;SDS011;36557;53.572;10.170;2023-08-01T08:32:53;3.45;;;1.95;;
50605;SDS011;36557;53.572;10.170;2023-08-01T08:35:18;3.67;;;1.83;;
50605;SDS011;36557;53.572;10.170;2023-08-01T08:37:44;4.90;;;2.10;;
50605;SDS011;36557;53.572;10.170;2023-08-01T08:40:10;4.00;;;1.63;;
50605;SDS011;36557;53.572;10.170;2023-08-01T08:42:38;2.72;;;1.40;;
50605;SDS011;36557;53.572;10.170;2023-08-01T08:45:05;4.18;;;1.75;;
50605;SDS011;36557;53.572;10.170;2023-08-01T08:47:31;6.82;;;2.10;;
50605;SDS011;36557;53.572;10.170;2023-08-01T08:50:01;4.90;;;2.03;;
50605;SDS011;36557;53.572;10.170;2023-08-01T08:52:27;4.85;;;1.80;;
50605;SDS011;36557;53.572;10.170;2023-08-01T08:54:52;4.45;;;1.80;;
50605;SDS011;36557;53.572;10.170;2023-08-01T08:57:20;5.20;;;1.75;;
50605;SDS011;36557;53.572;10.170;2023-08-01T08:59:46;3.10;;;2.00;;
50605;SDS011;36557;53.572;10.170;2023-08-01T09:02:13;3.45;;;2.22;;
50605;SDS011;36557;53.572;10.170;2023-08-01T09:04:41;7.85;;;2.25;;
50605;SDS011;36557;53.572;10.170;2023-08-01T09:07:08;5.97;;;2.90;;
50605;SDS011;36557;53.572;10.170;2023-08-01T09:09:36;4.97;;;2.30;;
50605;SDS011;36557;53.572;10.170;2023-08-01T09:12:02;6.70;;;2.50;;
50605;SDS011;36557;53.572;10.170;2023-08-01T09:14:28;5.28;;;2.10;;
50605;SDS011;36557;53.572;10.170;2023-08-01T09:16:54;5.05;;;2.15;;
50605;SDS011;36557;53.572;10.170;2023-08-01T09:19:24;5.57;;;1.92;;
50605;SDS011;36557;53.572;10.170;2023-08-01T09:21:53;7.90;;;2.38;;
50605;SDS011;36557;53.572;10.170;2023-08-01T09:24:19;4.90;;;2.40;;
50605;SDS011;36557;53.572;10.170;2023-08-01T09:26:46;4.35;;;2.40;;
50605;SDS011;36557;53.572;10.170;2023-08-01T09:29:15;6.18;;;2.20;;
50605;SDS011;36557;53.572;10.170;2023-08-01T09:31:42;4.18;;;2.13;;
50605;SDS011;36557;53.572;10.170;2023-08-01T09:34:18;5.88;;;1.70;;
50605;SDS011;36557;53.572;10.170;2023-08-01T09:36:48;5.70;;;1.92;;
50605;SDS011;36557;53.572;10.170;2023-08-01T09:39:18;4.35;;;1.75;;
50605;SDS011;36557;53.572;10.170;2023-08-01T09:41:45;2.53;;;1.20;;
50605;SDS011;36557;53.572;10.170;2023-08-01T09:44:12;3.58;;;1.50;;
50605;SDS011;36557;53.572;10.170;2023-08-01T09:46:41;3.15;;;1.25;;
50605;SDS011;36557;53.572;10.170;2023-08-01T09:49:10;1.95;;;1.48;;
50605;SDS011;36557;53.572;10.170;2023-08-01T09:51:46;3.63;;;1.38;;
50605;SDS011;36557;53.572;10.170;2023-08-01T09:54:13;3.47;;;1.33;;
50605;SDS011;36557;53.572;10.170;2023-08-01T09:56:40;2.45;;;1.42;;
50605;SDS011;36557;53.572;10.170;2023-08-01T09:59:09;2.47;;;1.30;;
50605;SDS011;36557;53.572;10.170;2023-08-01T10:01:36;3.38;;;1.58;;
50605;SDS011;36557;53.572;10.170;2023-08-01T10:04:04;2.25;;;1.23;;
50605;SDS011;36557;53.572;10.170;2023-08-01T10:06:32;2.15;;;1.30;;
50605;SDS011;36557;53.572;10.170;2023-08-01T10:09:00;2.90;;;1.20;;
50605;SDS011;36557;53.572;10.170;2023-08-01T10:11:27;3.85;;;1.33;;
50605;SDS011;36557;53.572;10.170;2023-08-01T10:13:55;3.40;;;1.38;;
50605;SDS011;36557;53.572;10.170;2023-08-01T10:16:21;3.53;;;1.48;;
50605;SDS011;36557;53.572;10.170;2023-08-01T10:18:47;2.25;;;1.30;;
50605;SDS011;36557;53.572;10.170;2023-08-01T10:21:15;3.35;;;1.05;;
50605;SDS011;36557;53.572;10.170;2023-08-01T10:23:42;1.60;;;1.10;;
50605;SDS011;36557;53.572;10.170;2023-08-01T10:26:09;2.17;;;1.00;;
50605;SDS011;36557;53.572;10.170;2023-08-01T10:28:37;2.65;;;1.25;;
50605;SDS011;36557;53.572;10.170;2023-08-01T10:31:14;2.00;;;1.10;;
50605;SDS011;36557;53.572;10.170;2023-08-01T10:33:44;3.80;;;1.52;;
50605;SDS011;36557;53.572;10.170;2023-08-01T10:36:18;2.58;;;1.17;;
50605;SDS011;36557;53.572;10.170;2023-08-01T10:41:25;4.97;;;1.13;;
50605;SDS011;36557;53.572;10.170;2023-08-01T10:44:09;1.73;;;1.05;;
50605;SDS011;36557;53.572;10.170;2023-08-01T10:46:45;2.50;;;1.00;;
50605;SDS011;36557;53.572;10.170;2023-08-01T10:49:11;1.85;;;0.90;;
50605;SDS011;36557;53.572;10.170;2023-08-01T10:51:37;4.15;;;1.33;;
50605;SDS011;36557;53.572;10.170;2023-08-01T10:54:02;1.77;;;0.90;;
50605;SDS011;36557;53.572;10.170;2023-08-01T10:56:28;1.70;;;0.88;;
50605;SDS011;36557;53.572;10.170;2023-08-01T10:58:56;1.92;;;1.10;;
50605;SDS011;36557;53.572;10.170;2023-08-01T11:01:23;2.92;;;1.08;;
50605;SDS011;36557;53.572;10.170;2023-08-01T11:03:49;1.95;;;0.80;;
50605;SDS011;36557;53.572;10.170;2023-08-01T11:06:15;1.38;;;0.60;;
50605;SDS011;36557;53.572;10.170;2023-08-01T11:08:41;1.58;;;0.75;;
50605;SDS011;36557;53.572;10.170;2023-08-01T11:11:10;2.90;;;0.73;;
50605;SDS011;36557;53.572;10.170;2023-08-01T11:13:38;1.95;;;0.60;;
50605;SDS011;36557;53.572;10.170;2023-08-01T11:16:04;1.65;;;0.70;;
50605;SDS011;36557;53.572;10.170;2023-08-01T11:18:40;3.28;;;0.80;;
50605;SDS011;36557;53.572;10.170;2023-08-01T11:21:08;1.45;;;0.88;;
50605;SDS011;36557;53.572;10.170;2023-08-01T11:23:34;1.08;;;0.70;;
50605;SDS011;36557;53.572;10.170;2023-08-01T11:26:01;3.53;;;0.90;;
50605;SDS011;36557;53.572;10.170;2023-08-01T11:28:34;1.70;;;0.65;;
50605;SDS011;36557;53.572;10.170;2023-08-01T11:31:00;1.35;;;0.70;;
50605;SDS011;36557;53.572;10.170;2023-08-01T11:33:26;1.63;;;0.60;;
50605;SDS011;36557;53.572;10.170;2023-08-01T11:35:53;1.70;;;0.50;;
50605;SDS011;36557;53.572;10.170;2023-08-01T11:38:22;2.05;;;0.50;;
50605;SDS011;36557;53.572;10.170;2023-08-01T11:40:50;0.98;;;0.47;;
50605;SDS011;36557;53.572;10.170;2023-08-01T11:43:17;0.95;;;0.50;;
50605;SDS011;36557;53.572;10.170;2023-08-01T11:45:52;0.90;;;0.40;;
50605;SDS011;36557;53.572;10.170;2023-08-01T11:48:24;2.33;;;0.45;;
50605;SDS011;36557;53.572;10.170;2023-08-01T11:50:59;1.20;;;0.50;;
50605;SDS011;36557;53.572;10.170;2023-08-01T11:53:25;2.75;;;0.50;;
50605;SDS011;36557;53.572;10.170;2023-08-01T11:55:52;2.10;;;0.50;;
50605;SDS011;36557;53.572;10.170;2023-08-01T11:58:28;1.15;;;0.50;;
50605;SDS011;36557;53.572;10.170;2023-08-01T12:01:08;2.20;;;0.47;;
50605;SDS011;36557;53.572;10.170;2023-08-01T12:03:50;1.17;;;0.60;;
50605;SDS011;36557;53.572;10.170;2023-08-01T12:06:17;1.00;;;0.47;;
50605;SDS011;36557;53.572;10.170;2023-08-01T12:08:45;1.77;;;0.60;;
50605;SDS011;36557;53.572;10.170;2023-08-01T12:11:24;0.60;;;0.40;;
50605;SDS011;36557;53.572;10.170;2023-08-01T12:16:36;3.17;;;0.55;;
50605;SDS011;36557;53.572;10.170;2023-08-01T12:19:03;1.58;;;0.50;;
50605;SDS011;36557;53.572;10.170;2023-08-01T12:21:29;2.28;;;0.57;;
50605;SDS011;36557;53.572;10.170;2023-08-01T12:23:58;2.50;;;1.10;;
50605;SDS011;36557;53.572;10.170;2023-08-01T12:26:24;2.30;;;0.93;;
50605;SDS011;36557;53.572;10.170;2023-08-01T12:28:50;2.85;;;0.80;;
50605;SDS011;36557;53.572;10.170;2023-08-01T12:31:19;1.60;;;0.65;;
50605;SDS011;36557;53.572;10.170;2023-08-01T12:33:46;1.35;;;0.60;;
50605;SDS011;36557;53.572;10.170;2023-08-01T12:36:13;1.00;;;0.60;;
50605;SDS011;36557;53.572;10.170;2023-08-01T12:38:39;3.70;;;0.70;;
50605;SDS011;36557;53.572;10.170;2023-08-01T12:41:05;1.23;;;0.50;;
50605;SDS011;36557;53.572;10.170;2023-08-01T12:43:31;0.93;;;0.50;;
50605;SDS011;36557;53.572;10.170;2023-08-01T12:45:57;0.77;;;0.40;;
50605;SDS011;36557;53.572;10.170;2023-08-01T12:48:24;1.65;;;0.50;;
50605;SDS011;36557;53.572;10.170;2023-08-01T12:50:50;1.95;;;0.70;;
50605;SDS011;36557;53.572;10.170;2023-08-01T12:53:16;2.90;;;0.70;;
50605;SDS011;36557;53.572;10.170;2023-08-01T12:55:45;1.70;;;0.70;;
50605;SDS011;36557;53.572;10.170;2023-08-01T12:58:12;1.45;;;0.70;;
50605;SDS011;36557;53.572;10.170;2023-08-01T13:00:38;1.42;;;0.68;;
50605;SDS011;36557;53.572;10.170;2023-08-01T13:03:05;1.23;;;0.63;;
50605;SDS011;36557;53.572;10.170;2023-08-01T13:05:36;0.85;;;0.60;;
50605;SDS011;36557;53.572;10.170;2023-08-01T13:08:03;0.90;;;0.30;;
50605;SDS011;36557;53.572;10.170;2023-08-01T13:10:33;0.77;;;0.30;;
50605;SDS011;36557;53.572;10.170;2023-08-01T13:13:00;0.50;;;0.40;;
50605;SDS011;36557;53.572;10.170;2023-08-01T13:15:26;0.85;;;0.63;;
50605;SDS011;36557;53.572;10.170;2023-08-01T13:17:52;1.30;;;0.50;;
50605;SDS011;36557;53.572;10.170;2023-08-01T13:20:18;0.93;;;0.70;;
50605;SDS011;36557;53.572;10.170;2023-08-01T13:22:45;0.85;;;0.50;;
50605;SDS011;36557;53.572;10.170;2023-08-01T13:25:12;0.75;;;0.57;;
50605;SDS011;36557;53.572;10.170;2023-08-01T13:27:38;1.50;;;0.57;;
50605;SDS011;36557;53.572;10.170;2023-08-01T13:30:04;1.60;;;0.70;;
50605;SDS011;36557;53.572;10.170;2023-08-01T13:32:31;0.90;;;0.75;;
50605;SDS011;36557;53.572;10.170;2023-08-01T13:34:56;1.23;;;0.60;;
50605;SDS011;36557;53.572;10.170;2023-08-01T13:37:22;1.42;;;0.43;;
50605;SDS011;36557;53.572;10.170;2023-08-01T13:39:48;1.38;;;0.50;;
50605;SDS011;36557;53.572;10.170;2023-08-01T13:42:14;1.23;;;0.60;;
50605;SDS011;36557;53.572;10.170;2023-08-01T13:44:40;3.00;;;0.70;;
50605;SDS011;36557;53.572;10.170;2023-08-01T13:47:06;1.00;;;0.40;;
50605;SDS011;36557;53.572;10.170;2023-08-01T13:49:32;0.85;;;0.43;;
50605;SDS011;36557;53.572;10.170;2023-08-01T13:51:58;1.60;;;0.50;;
50605;SDS011;36557;53.572;10.170;2023-08-01T13:54:25;1.55;;;0.60;;
50605;SDS011;36557;53.572;10.170;2023-08-01T13:56:51;1.65;;;0.70;;
50605;SDS011;36557;53.572;10.170;2023-08-01T13:59:18;1.85;;;0.70;;
50605;SDS011;36557;53.572;10.170;2023-08-01T14:01:44;1.55;;;0.60;;
50605;SDS011;36557;53.572;10.170;2023-08-01T14:04:10;2.20;;;0.73;;
50605;SDS011;36557;53.572;10.170;2023-08-01T14:06:39;3.92;;;0.75;;
50605;SDS011;36557;53.572;10.170;2023-08-01T14:09:06;1.85;;;0.60;;
50605;SDS011;36557;53.572;10.170;2023-08-01T14:11:33;1.48;;;0.60;;
50605;SDS011;36557;53.572;10.170;2023-08-01T14:13:59;2.28;;;0.55;;
50605;SDS011;36557;53.572;10.170;2023-08-01T14:16:25;3.22;;;0.75;;
50605;SDS011;36557;53.572;10.170;2023-08-01T14:18:51;3.00;;;0.63;;
50605;SDS011;36557;53.572;10.170;2023-08-01T14:21:18;1.25;;;0.60;;
50605;SDS011;36557;53.572;10.170;2023-08-01T14:23:43;1.52;;;0.77;;
50605;SDS011;36557;53.572;10.170;2023-08-01T14:26:09;1.65;;;0.60;;
50605;SDS011;36557;53.572;10.170;2023-08-01T14:28:35;2.65;;;0.70;;
50605;SDS011;36557;53.572;10.170;2023-08-01T14:31:01;2.13;;;0.60;;
50605;SDS011;36557;53.572;10.170;2023-08-01T14:33:27;11.13;;;0.73;;
50605;SDS011;36557;53.572;10.170;2023-08-01T14:35:53;0.57;;;0.30;;
50605;SDS011;36557;53.572;10.170;2023-08-01T14:38:20;0.93;;;0.50;;